sensor_id;sensor_type;location;lat;lon;timestamp;temperature;humidity
39067;DHT22;24821;51.988;6.020;2022-08-04T00:01:50;23.40;93.70
39067;DHT22;24821;51.988;6.020;2022-08-04T00:04:28;23.40;93.90
39067;DHT22;24821;51.988;6.020;2022-08-04T00:07:39;23.40;94.30
39067;DHT22;24821;51.988;6.020;2022-08-04T00:10:06;23.40;94.20
39067;DHT22;24821;51.988;6.020;2022-08-04T00:12:35;23.30;94.30
39067;DHT22;24821;51.988;6.020;2022-08-04T00:15:04;23.30;94.30
39067;DHT22;24821;51.988;6.020;2022-08-04T00:17:33;23.20;94.20
39067;DHT22;24821;51.988;6.020;2022-08-04T00:20:02;23.20;94.20
39067;DHT22;24821;51.988;6.020;2022-08-04T00:22:30;23.20;94.50
39067;DHT22;24821;51.988;6.020;2022-08-04T00:24:57;23.20;94.20
39067;DHT22;24821;51.988;6.020;2022-08-04T00:27:28;23.20;94.20
39067;DHT22;24821;51.988;6.020;2022-08-04T00:29:54;23.10;94.20
39067;DHT22;24821;51.988;6.020;2022-08-04T00:32:20;23.10;94.20
39067;DHT22;24821;51.988;6.020;2022-08-04T00:34:47;23.10;94.20
39067;DHT22;24821;51.988;6.020;2022-08-04T00:37:13;23.10;94.30
39067;DHT22;24821;51.988;6.020;2022-08-04T00:39:39;23.00;94.30
39067;DHT22;24821;51.988;6.020;2022-08-04T00:42:20;23.00;94.40
39067;DHT22;24821;51.988;6.020;2022-08-04T00:48:01;23.00;94.60
39067;DHT22;24821;51.988;6.020;2022-08-04T00:50:44;22.90;94.80
39067;DHT22;24821;51.988;6.020;2022-08-04T00:56:10;22.90;95.10
39067;DHT22;24821;51.988;6.020;2022-08-04T00:58:46;22.90;95.30
39067;DHT22;24821;51.988;6.020;2022-08-04T01:04:29;22.70;95.40
39067;DHT22;24821;51.988;6.020;2022-08-04T01:07:10;22.70;95.60
39067;DHT22;24821;51.988;6.020;2022-08-04T01:10:05;22.70;96.00
39067;DHT22;24821;51.988;6.020;2022-08-04T01:20:32;22.50;96.50
39067;DHT22;24821;51.988;6.020;2022-08-04T01:31:39;22.40;96.40
39067;DHT22;24821;51.988;6.020;2022-08-04T01:34:10;22.40;96.60
39067;DHT22;24821;51.988;6.020;2022-08-04T01:36:44;22.30;96.40
39067;DHT22;24821;51.988;6.020;2022-08-04T01:39:15;22.30;96.40
39067;DHT22;24821;51.988;6.020;2022-08-04T01:42:01;22.30;96.60
39067;DHT22;24821;51.988;6.020;2022-08-04T01:44:30;22.20;96.40
39067;DHT22;24821;51.988;6.020;2022-08-04T01:46:56;22.20;96.40
39067;DHT22;24821;51.988;6.020;2022-08-04T01:49:28;22.20;96.50
39067;DHT22;24821;51.988;6.020;2022-08-04T01:51:55;22.20;96.50
39067;DHT22;24821;51.988;6.020;2022-08-04T01:54:22;22.10;96.50
39067;DHT22;24821;51.988;6.020;2022-08-04T01:56:52;22.10;96.60
39067;DHT22;24821;51.988;6.020;2022-08-04T01:59:20;22.10;96.60
39067;DHT22;24821;51.988;6.020;2022-08-04T02:01:46;22.10;96.70
39067;DHT22;24821;51.988;6.020;2022-08-04T02:04:18;22.10;96.80
39067;DHT22;24821;51.988;6.020;2022-08-04T02:12:43;21.90;96.70
39067;DHT22;24821;51.988;6.020;2022-08-04T02:15:35;21.90;96.90
39067;DHT22;24821;51.988;6.020;2022-08-04T02:18:27;21.90;96.90
39067;DHT22;24821;51.988;6.020;2022-08-04T02:20:58;21.80;97.00
39067;DHT22;24821;51.988;6.020;2022-08-04T02:23:38;21.70;97.10
39067;DHT22;24821;51.988;6.020;2022-08-04T02:26:19;21.80;97.10
39067;DHT22;24821;51.988;6.020;2022-08-04T02:31:29;21.70;97.10
39067;DHT22;24821;51.988;6.020;2022-08-04T02:34:34;21.70;97.10
39067;DHT22;24821;51.988;6.020;2022-08-04T02:37:03;21.70;97.00
39067;DHT22;24821;51.988;6.020;2022-08-04T02:39:33;21.50;97.10
39067;DHT22;24821;51.988;6.020;2022-08-04T02:42:02;21.60;97.20
39067;DHT22;24821;51.988;6.020;2022-08-04T02:44:29;21.50;97.20
39067;DHT22;24821;51.988;6.020;2022-08-04T02:46:56;21.50;97.20
39067;DHT22;24821;51.988;6.020;2022-08-04T02:49:25;21.50;97.20
39067;DHT22;24821;51.988;6.020;2022-08-04T02:51:56;21.50;97.20
39067;DHT22;24821;51.988;6.020;2022-08-04T02:54:28;21.50;97.20
39067;DHT22;24821;51.988;6.020;2022-08-04T02:56:56;21.40;97.10
39067;DHT22;24821;51.988;6.020;2022-08-04T02:59:26;21.40;97.20
39067;DHT22;24821;51.988;6.020;2022-08-04T03:01:55;21.40;97.20
39067;DHT22;24821;51.988;6.020;2022-08-04T03:04:31;21.40;97.20
39067;DHT22;24821;51.988;6.020;2022-08-04T03:10:17;21.40;97.20
39067;DHT22;24821;51.988;6.020;2022-08-04T03:12:54;21.30;97.30
39067;DHT22;24821;51.988;6.020;2022-08-04T03:15:41;21.30;97.30
39067;DHT22;24821;51.988;6.020;2022-08-04T03:27:08;21.20;97.20
39067;DHT22;24821;51.988;6.020;2022-08-04T03:30:18;21.20;97.20
39067;DHT22;24821;51.988;6.020;2022-08-04T03:33:03;21.20;97.20
39067;DHT22;24821;51.988;6.020;2022-08-04T03:46:40;21.10;97.20
39067;DHT22;24821;51.988;6.020;2022-08-04T03:49:35;21.10;97.30
39067;DHT22;24821;51.988;6.020;2022-08-04T03:52:07;21.10;97.20
39067;DHT22;24821;51.988;6.020;2022-08-04T04:01:10;21.00;97.40
39067;DHT22;24821;51.988;6.020;2022-08-04T04:03:39;21.00;97.30
39067;DHT22;24821;51.988;6.020;2022-08-04T04:06:52;21.00;97.40
39067;DHT22;24821;51.988;6.020;2022-08-04T04:09:40;21.00;97.40
39067;DHT22;24821;51.988;6.020;2022-08-04T04:12:25;20.90;97.60
39067;DHT22;24821;51.988;6.020;2022-08-04T04:24:07;20.90;97.60
39067;DHT22;24821;51.988;6.020;2022-08-04T04:27:03;20.90;97.60
39067;DHT22;24821;51.988;6.020;2022-08-04T04:35:30;20.90;97.70
39067;DHT22;24821;51.988;6.020;2022-08-04T04:54:13;21.10;97.90
39067;DHT22;24821;51.988;6.020;2022-08-04T04:57:10;21.20;97.70
39067;DHT22;24821;51.988;6.020;2022-08-04T04:59:47;21.20;97.80
39067;DHT22;24821;51.988;6.020;2022-08-04T05:05:14;21.30;97.80
39067;DHT22;24821;51.988;6.020;2022-08-04T05:07:52;21.40;97.70
39067;DHT22;24821;51.988;6.020;2022-08-04T05:13:15;21.60;97.50
39067;DHT22;24821;51.988;6.020;2022-08-04T05:15:44;21.60;97.50
39067;DHT22;24821;51.988;6.020;2022-08-04T05:18:15;21.70;97.40
39067;DHT22;24821;51.988;6.020;2022-08-04T05:20:47;21.80;97.50
39067;DHT22;24821;51.988;6.020;2022-08-04T05:23:18;21.90;97.20
39067;DHT22;24821;51.988;6.020;2022-08-04T05:25:50;22.00;97.20
39067;DHT22;24821;51.988;6.020;2022-08-04T05:28:25;22.00;97.00
39067;DHT22;24821;51.988;6.020;2022-08-04T05:31:00;22.20;96.90
39067;DHT22;24821;51.988;6.020;2022-08-04T05:33:40;22.30;96.80
39067;DHT22;24821;51.988;6.020;2022-08-04T05:36:11;22.40;96.60
39067;DHT22;24821;51.988;6.020;2022-08-04T05:38:39;22.50;96.60
39067;DHT22;24821;51.988;6.020;2022-08-04T05:41:07;22.60;96.70
39067;DHT22;24821;51.988;6.020;2022-08-04T05:43:35;22.80;96.30
39067;DHT22;24821;51.988;6.020;2022-08-04T05:46:01;22.90;96.20
39067;DHT22;24821;51.988;6.020;2022-08-04T05:48:29;23.00;96.10
39067;DHT22;24821;51.988;6.020;2022-08-04T05:50:57;23.20;95.90
39067;DHT22;24821;51.988;6.020;2022-08-04T05:53:24;23.40;95.70
39067;DHT22;24821;51.988;6.020;2022-08-04T05:55:51;23.40;95.40
39067;DHT22;24821;51.988;6.020;2022-08-04T05:58:17;23.60;95.30
39067;DHT22;24821;51.988;6.020;2022-08-04T06:00:45;23.60;95.20
39067;DHT22;24821;51.988;6.020;2022-08-04T06:03:24;23.60;95.10
39067;DHT22;24821;51.988;6.020;2022-08-04T06:06:02;23.80;95.00
39067;DHT22;24821;51.988;6.020;2022-08-04T06:08:38;23.80;94.90
39067;DHT22;24821;51.988;6.020;2022-08-04T06:11:16;23.90;94.90
39067;DHT22;24821;51.988;6.020;2022-08-04T06:14:02;24.00;94.80
39067;DHT22;24821;51.988;6.020;2022-08-04T06:16:43;24.10;94.50
39067;DHT22;24821;51.988;6.020;2022-08-04T06:19:14;24.20;94.40
39067;DHT22;24821;51.988;6.020;2022-08-04T06:22:09;24.30;94.40
39067;DHT22;24821;51.988;6.020;2022-08-04T06:24:37;24.50;94.30
39067;DHT22;24821;51.988;6.020;2022-08-04T06:27:04;24.50;94.40
39067;DHT22;24821;51.988;6.020;2022-08-04T06:29:32;24.70;94.30
39067;DHT22;24821;51.988;6.020;2022-08-04T06:32:02;24.70;94.20
39067;DHT22;24821;51.988;6.020;2022-08-04T06:34:39;24.80;94.30
39067;DHT22;24821;51.988;6.020;2022-08-04T06:37:06;25.00;94.20
39067;DHT22;24821;51.988;6.020;2022-08-04T06:39:32;25.10;93.90
39067;DHT22;24821;51.988;6.020;2022-08-04T06:41:58;25.10;93.70
39067;DHT22;24821;51.988;6.020;2022-08-04T06:44:26;25.20;93.50
39067;DHT22;24821;51.988;6.020;2022-08-04T06:46:53;25.40;93.40
39067;DHT22;24821;51.988;6.020;2022-08-04T06:49:20;25.50;93.30
39067;DHT22;24821;51.988;6.020;2022-08-04T06:51:47;25.60;93.30
39067;DHT22;24821;51.988;6.020;2022-08-04T06:54:14;25.70;93.20
39067;DHT22;24821;51.988;6.020;2022-08-04T06:56:40;25.80;93.00
39067;DHT22;24821;51.988;6.020;2022-08-04T06:59:08;25.80;92.80
39067;DHT22;24821;51.988;6.020;2022-08-04T07:01:35;26.00;92.50
39067;DHT22;24821;51.988;6.020;2022-08-04T07:04:03;26.00;92.40
39067;DHT22;24821;51.988;6.020;2022-08-04T07:06:29;26.10;92.00
39067;DHT22;24821;51.988;6.020;2022-08-04T07:08:55;26.10;91.80
39067;DHT22;24821;51.988;6.020;2022-08-04T07:11:21;26.20;92.00
39067;DHT22;24821;51.988;6.020;2022-08-04T07:13:48;26.20;92.10
39067;DHT22;24821;51.988;6.020;2022-08-04T07:16:14;26.30;92.10
39067;DHT22;24821;51.988;6.020;2022-08-04T07:18:41;26.40;91.50
39067;DHT22;24821;51.988;6.020;2022-08-04T07:21:06;26.40;91.80
39067;DHT22;24821;51.988;6.020;2022-08-04T07:23:33;26.50;91.60
39067;DHT22;24821;51.988;6.020;2022-08-04T07:25:58;26.60;91.30
39067;DHT22;24821;51.988;6.020;2022-08-04T07:28:27;26.80;91.20
39067;DHT22;24821;51.988;6.020;2022-08-04T07:30:54;26.90;90.80
39067;DHT22;24821;51.988;6.020;2022-08-04T07:33:21;27.00;90.00
39067;DHT22;24821;51.988;6.020;2022-08-04T07:35:49;27.10;89.90
39067;DHT22;24821;51.988;6.020;2022-08-04T07:38:15;27.20;90.20
39067;DHT22;24821;51.988;6.020;2022-08-04T07:40:41;27.20;88.70
39067;DHT22;24821;51.988;6.020;2022-08-04T07:43:08;27.30;87.60
39067;DHT22;24821;51.988;6.020;2022-08-04T07:45:33;27.30;87.30
39067;DHT22;24821;51.988;6.020;2022-08-04T07:48:00;27.40;87.10
39067;DHT22;24821;51.988;6.020;2022-08-04T07:50:28;27.40;86.10
39067;DHT22;24821;51.988;6.020;2022-08-04T07:52:54;27.50;86.50
39067;DHT22;24821;51.988;6.020;2022-08-04T07:55:21;27.60;86.20
39067;DHT22;24821;51.988;6.020;2022-08-04T07:57:47;27.70;85.50
39067;DHT22;24821;51.988;6.020;2022-08-04T08:00:13;27.80;85.50
39067;DHT22;24821;51.988;6.020;2022-08-04T08:02:40;27.90;84.80
39067;DHT22;24821;51.988;6.020;2022-08-04T08:05:11;28.10;83.90
39067;DHT22;24821;51.988;6.020;2022-08-04T08:07:37;28.10;83.80
39067;DHT22;24821;51.988;6.020;2022-08-04T08:10:03;28.30;83.50
39067;DHT22;24821;51.988;6.020;2022-08-04T08:12:30;28.70;81.80
39067;DHT22;24821;51.988;6.020;2022-08-04T08:14:56;29.00;81.30
39067;DHT22;24821;51.988;6.020;2022-08-04T08:17:22;29.30;80.50
39067;DHT22;24821;51.988;6.020;2022-08-04T08:19:48;29.60;79.60
39067;DHT22;24821;51.988;6.020;2022-08-04T08:22:13;29.90;79.00
39067;DHT22;24821;51.988;6.020;2022-08-04T08:24:39;30.10;77.30
39067;DHT22;24821;51.988;6.020;2022-08-04T08:27:05;30.20;77.30
39067;DHT22;24821;51.988;6.020;2022-08-04T08:29:34;30.40;77.00
39067;DHT22;24821;51.988;6.020;2022-08-04T08:32:01;30.80;76.10
39067;DHT22;24821;51.988;6.020;2022-08-04T08:34:28;31.00;74.60
39067;DHT22;24821;51.988;6.020;2022-08-04T08:37:28;31.20;74.50
39067;DHT22;24821;51.988;6.020;2022-08-04T08:40:16;31.50;73.70
39067;DHT22;24821;51.988;6.020;2022-08-04T08:43:30;31.80;72.40
39067;DHT22;24821;51.988;6.020;2022-08-04T08:52:14;32.70;70.70
39067;DHT22;24821;51.988;6.020;2022-08-04T08:57:45;33.00;68.90
39067;DHT22;24821;51.988;6.020;2022-08-04T09:00:32;33.00;68.30
39067;DHT22;24821;51.988;6.020;2022-08-04T09:06:09;33.00;68.70
39067;DHT22;24821;51.988;6.020;2022-08-04T09:12:06;33.50;66.90
39067;DHT22;24821;51.988;6.020;2022-08-04T09:17:29;33.70;66.80
39067;DHT22;24821;51.988;6.020;2022-08-04T09:25:27;33.20;65.60
39067;DHT22;24821;51.988;6.020;2022-08-04T09:27:58;33.00;66.80
39067;DHT22;24821;51.988;6.020;2022-08-04T09:33:49;33.10;67.40
39067;DHT22;24821;51.988;6.020;2022-08-04T09:36:59;33.30;67.00
39067;DHT22;24821;51.988;6.020;2022-08-04T09:39:41;33.40;67.40
39067;DHT22;24821;51.988;6.020;2022-08-04T09:45:42;33.50;65.90
39067;DHT22;24821;51.988;6.020;2022-08-04T09:48:19;33.60;65.90
39067;DHT22;24821;51.988;6.020;2022-08-04T09:50:52;33.50;65.40
39067;DHT22;24821;51.988;6.020;2022-08-04T09:58:54;33.10;68.00
39067;DHT22;24821;51.988;6.020;2022-08-04T10:01:24;33.00;68.60
39067;DHT22;24821;51.988;6.020;2022-08-04T10:04:01;32.80;69.40
39067;DHT22;24821;51.988;6.020;2022-08-04T10:14:52;32.60;68.70
39067;DHT22;24821;51.988;6.020;2022-08-04T10:23:10;32.70;69.00
39067;DHT22;24821;51.988;6.020;2022-08-04T10:29:04;32.40;69.90
39067;DHT22;24821;51.988;6.020;2022-08-04T10:31:44;32.30;70.00
39067;DHT22;24821;51.988;6.020;2022-08-04T10:34:11;32.20;70.60
39067;DHT22;24821;51.988;6.020;2022-08-04T10:36:43;32.20;70.80
39067;DHT22;24821;51.988;6.020;2022-08-04T10:39:13;32.00;70.70
39067;DHT22;24821;51.988;6.020;2022-08-04T10:41:55;31.80;70.20
39067;DHT22;24821;51.988;6.020;2022-08-04T10:45:05;31.60;70.20
39067;DHT22;24821;51.988;6.020;2022-08-04T10:47:41;31.40;71.40
39067;DHT22;24821;51.988;6.020;2022-08-04T10:50:09;31.10;72.20
39067;DHT22;24821;51.988;6.020;2022-08-04T10:52:54;30.80;71.80
39067;DHT22;24821;51.988;6.020;2022-08-04T10:56:01;30.50;71.20
39067;DHT22;24821;51.988;6.020;2022-08-04T10:58:21;30.30;72.10
39067;DHT22;24821;51.988;6.020;2022-08-04T11:00:47;29.90;72.90
39067;DHT22;24821;51.988;6.020;2022-08-04T11:03:23;29.70;73.50
39067;DHT22;24821;51.988;6.020;2022-08-04T11:05:57;29.50;75.30
39067;DHT22;24821;51.988;6.020;2022-08-04T11:08:34;29.30;78.10
39067;DHT22;24821;51.988;6.020;2022-08-04T11:11:08;29.00;79.30
39067;DHT22;24821;51.988;6.020;2022-08-04T11:16:25;28.50;81.50
39067;DHT22;24821;51.988;6.020;2022-08-04T11:19:45;28.30;81.50
39067;DHT22;24821;51.988;6.020;2022-08-04T11:22:05;28.00;83.60
39067;DHT22;24821;51.988;6.020;2022-08-04T11:27:05;27.50;86.90
39067;DHT22;24821;51.988;6.020;2022-08-04T11:29:50;27.40;88.00
39067;DHT22;24821;51.988;6.020;2022-08-04T11:35:02;27.10;90.20
39067;DHT22;24821;51.988;6.020;2022-08-04T11:37:51;26.90;90.90
39067;DHT22;24821;51.988;6.020;2022-08-04T11:40:31;26.80;91.30
39067;DHT22;24821;51.988;6.020;2022-08-04T11:43:05;26.80;92.20
39067;DHT22;24821;51.988;6.020;2022-08-04T11:45:49;26.70;92.60
39067;DHT22;24821;51.988;6.020;2022-08-04T11:48:21;26.60;92.70
39067;DHT22;24821;51.988;6.020;2022-08-04T11:50:51;26.60;93.10
39067;DHT22;24821;51.988;6.020;2022-08-04T11:53:20;26.50;93.20
39067;DHT22;24821;51.988;6.020;2022-08-04T11:55:51;26.50;93.60
39067;DHT22;24821;51.988;6.020;2022-08-04T11:58:18;26.50;93.60
39067;DHT22;24821;51.988;6.020;2022-08-04T12:07:01;26.80;93.70
39067;DHT22;24821;51.988;6.020;2022-08-04T12:09:51;26.80;93.80
39067;DHT22;24821;51.988;6.020;2022-08-04T12:15:02;26.70;94.10
39067;DHT22;24821;51.988;6.020;2022-08-04T12:17:39;26.70;94.20
39067;DHT22;24821;51.988;6.020;2022-08-04T12:20:09;26.70;94.30
39067;DHT22;24821;51.988;6.020;2022-08-04T12:22:48;26.60;94.30
39067;DHT22;24821;51.988;6.020;2022-08-04T12:25:27;26.60;94.40
39067;DHT22;24821;51.988;6.020;2022-08-04T12:28:11;26.50;94.40
39067;DHT22;24821;51.988;6.020;2022-08-04T12:30:39;26.40;94.60
39067;DHT22;24821;51.988;6.020;2022-08-04T12:33:23;26.30;94.70
39067;DHT22;24821;51.988;6.020;2022-08-04T12:35:58;26.40;95.20
39067;DHT22;24821;51.988;6.020;2022-08-04T12:38:28;26.50;95.40
39067;DHT22;24821;51.988;6.020;2022-08-04T12:40:59;26.60;95.30
39067;DHT22;24821;51.988;6.020;2022-08-04T12:43:42;27.00;95.20
39067;DHT22;24821;51.988;6.020;2022-08-04T12:46:10;27.10;94.70
39067;DHT22;24821;51.988;6.020;2022-08-04T12:48:37;27.30;94.80
39067;DHT22;24821;51.988;6.020;2022-08-04T12:51:06;27.50;94.40
39067;DHT22;24821;51.988;6.020;2022-08-04T12:53:36;27.60;93.80
39067;DHT22;24821;51.988;6.020;2022-08-04T12:56:04;27.70;93.60
39067;DHT22;24821;51.988;6.020;2022-08-04T12:58:36;27.90;93.40
39067;DHT22;24821;51.988;6.020;2022-08-04T13:01:06;28.00;93.20
39067;DHT22;24821;51.988;6.020;2022-08-04T13:03:47;28.10;92.90
39067;DHT22;24821;51.988;6.020;2022-08-04T13:06:14;28.20;92.30
39067;DHT22;24821;51.988;6.020;2022-08-04T13:08:44;28.30;92.00
39067;DHT22;24821;51.988;6.020;2022-08-04T13:11:11;28.20;91.80
39067;DHT22;24821;51.988;6.020;2022-08-04T13:13:38;28.20;92.00
39067;DHT22;24821;51.988;6.020;2022-08-04T13:16:08;28.20;92.00
39067;DHT22;24821;51.988;6.020;2022-08-04T13:18:38;28.20;91.60
39067;DHT22;24821;51.988;6.020;2022-08-04T13:21:21;28.20;91.80
39067;DHT22;24821;51.988;6.020;2022-08-04T13:23:49;28.20;91.90
39067;DHT22;24821;51.988;6.020;2022-08-04T13:26:16;28.20;91.90
39067;DHT22;24821;51.988;6.020;2022-08-04T13:28:46;28.20;92.20
39067;DHT22;24821;51.988;6.020;2022-08-04T13:31:15;28.40;92.30
39067;DHT22;24821;51.988;6.020;2022-08-04T13:33:44;28.70;91.80
39067;DHT22;24821;51.988;6.020;2022-08-04T13:36:11;29.00;90.60
39067;DHT22;24821;51.988;6.020;2022-08-04T13:38:45;29.20;90.50
39067;DHT22;24821;51.988;6.020;2022-08-04T13:41:12;29.20;89.70
39067;DHT22;24821;51.988;6.020;2022-08-04T13:43:44;29.20;89.10
39067;DHT22;24821;51.988;6.020;2022-08-04T13:46:15;29.20;87.80
39067;DHT22;24821;51.988;6.020;2022-08-04T13:48:42;29.20;87.10
39067;DHT22;24821;51.988;6.020;2022-08-04T13:51:09;29.20;86.60
39067;DHT22;24821;51.988;6.020;2022-08-04T13:53:37;29.30;86.60
39067;DHT22;24821;51.988;6.020;2022-08-04T13:56:06;29.40;86.20
39067;DHT22;24821;51.988;6.020;2022-08-04T13:58:41;29.50;84.80
39067;DHT22;24821;51.988;6.020;2022-08-04T14:01:19;29.60;85.40
39067;DHT22;24821;51.988;6.020;2022-08-04T14:04:12;29.60;85.10
39067;DHT22;24821;51.988;6.020;2022-08-04T14:06:53;29.60;85.30
39067;DHT22;24821;51.988;6.020;2022-08-04T14:09:22;29.50;84.20
39067;DHT22;24821;51.988;6.020;2022-08-04T14:11:50;29.40;84.80
39067;DHT22;24821;51.988;6.020;2022-08-04T14:14:18;29.30;85.70
39067;DHT22;24821;51.988;6.020;2022-08-04T14:17:17;29.30;85.70
39067;DHT22;24821;51.988;6.020;2022-08-04T14:19:52;29.50;84.20
39067;DHT22;24821;51.988;6.020;2022-08-04T14:27:50;29.80;81.70
39067;DHT22;24821;51.988;6.020;2022-08-04T14:33:11;29.90;82.70
39067;DHT22;24821;51.988;6.020;2022-08-04T14:35:38;29.90;81.80
39067;DHT22;24821;51.988;6.020;2022-08-04T14:38:04;29.90;81.40
39067;DHT22;24821;51.988;6.020;2022-08-04T14:40:33;30.00;82.10
39067;DHT22;24821;51.988;6.020;2022-08-04T14:43:00;30.10;82.00
39067;DHT22;24821;51.988;6.020;2022-08-04T14:45:34;30.00;82.00
39067;DHT22;24821;51.988;6.020;2022-08-04T14:48:02;29.90;82.60
39067;DHT22;24821;51.988;6.020;2022-08-04T14:50:41;29.80;83.00
39067;DHT22;24821;51.988;6.020;2022-08-04T14:53:27;29.80;82.30
39067;DHT22;24821;51.988;6.020;2022-08-04T14:55:58;29.80;82.90
39067;DHT22;24821;51.988;6.020;2022-08-04T14:58:31;29.80;82.70
39067;DHT22;24821;51.988;6.020;2022-08-04T15:00:59;30.00;83.40
39067;DHT22;24821;51.988;6.020;2022-08-04T15:03:27;29.90;82.90
39067;DHT22;24821;51.988;6.020;2022-08-04T15:05:55;29.90;82.00
39067;DHT22;24821;51.988;6.020;2022-08-04T15:08:21;30.00;80.90
39067;DHT22;24821;51.988;6.020;2022-08-04T15:10:47;30.00;79.30
39067;DHT22;24821;51.988;6.020;2022-08-04T15:13:12;30.10;79.00
39067;DHT22;24821;51.988;6.020;2022-08-04T15:15:42;30.00;78.70
39067;DHT22;24821;51.988;6.020;2022-08-04T15:18:09;30.00;79.50
39067;DHT22;24821;51.988;6.020;2022-08-04T15:20:35;30.00;79.90
39067;DHT22;24821;51.988;6.020;2022-08-04T15:23:01;30.00;79.00
39067;DHT22;24821;51.988;6.020;2022-08-04T15:25:35;30.00;78.50
39067;DHT22;24821;51.988;6.020;2022-08-04T15:28:02;30.00;79.50
39067;DHT22;24821;51.988;6.020;2022-08-04T15:30:28;30.20;79.40
39067;DHT22;24821;51.988;6.020;2022-08-04T15:32:58;30.30;79.50
39067;DHT22;24821;51.988;6.020;2022-08-04T15:35:26;30.40;79.60
39067;DHT22;24821;51.988;6.020;2022-08-04T15:40:34;30.50;79.30
39067;DHT22;24821;51.988;6.020;2022-08-04T15:45:57;30.50;77.60
39067;DHT22;24821;51.988;6.020;2022-08-04T15:48:26;30.60;78.40
39067;DHT22;24821;51.988;6.020;2022-08-04T15:55:51;30.70;79.30
39067;DHT22;24821;51.988;6.020;2022-08-04T15:58:20;30.70;79.20
39067;DHT22;24821;51.988;6.020;2022-08-04T16:19:04;30.30;73.50
39067;DHT22;24821;51.988;6.020;2022-08-04T16:21:32;30.20;73.30
39067;DHT22;24821;51.988;6.020;2022-08-04T16:37:10;29.80;72.60
39067;DHT22;24821;51.988;6.020;2022-08-04T16:39:37;29.80;72.70
39067;DHT22;24821;51.988;6.020;2022-08-04T16:42:33;29.80;72.70
39067;DHT22;24821;51.988;6.020;2022-08-04T16:48:01;29.60;72.50
39067;DHT22;24821;51.988;6.020;2022-08-04T16:50:28;29.50;72.70
39067;DHT22;24821;51.988;6.020;2022-08-04T16:52:54;29.30;73.40
39067;DHT22;24821;51.988;6.020;2022-08-04T16:55:24;29.20;73.70
39067;DHT22;24821;51.988;6.020;2022-08-04T16:57:53;29.10;73.50
39067;DHT22;24821;51.988;6.020;2022-08-04T17:00:36;29.00;72.60
39067;DHT22;24821;51.988;6.020;2022-08-04T17:03:06;28.80;72.50
39067;DHT22;24821;51.988;6.020;2022-08-04T17:05:36;28.60;73.70
39067;DHT22;24821;51.988;6.020;2022-08-04T17:08:03;28.50;74.00
39067;DHT22;24821;51.988;6.020;2022-08-04T17:10:38;28.40;73.50
39067;DHT22;24821;51.988;6.020;2022-08-04T17:13:42;28.40;73.20
39067;DHT22;24821;51.988;6.020;2022-08-04T17:16:17;28.30;73.40
39067;DHT22;24821;51.988;6.020;2022-08-04T17:18:50;28.10;73.60
39067;DHT22;24821;51.988;6.020;2022-08-04T17:21:20;28.10;73.30
39067;DHT22;24821;51.988;6.020;2022-08-04T17:23:48;28.00;73.70
39067;DHT22;24821;51.988;6.020;2022-08-04T17:26:18;28.00;73.80
39067;DHT22;24821;51.988;6.020;2022-08-04T17:28:47;28.00;74.00
39067;DHT22;24821;51.988;6.020;2022-08-04T17:31:13;28.00;73.80
39067;DHT22;24821;51.988;6.020;2022-08-04T17:33:44;28.10;73.60
39067;DHT22;24821;51.988;6.020;2022-08-04T17:36:10;28.10;73.30
39067;DHT22;24821;51.988;6.020;2022-08-04T17:38:44;28.20;73.20
39067;DHT22;24821;51.988;6.020;2022-08-04T17:41:12;28.30;73.10
39067;DHT22;24821;51.988;6.020;2022-08-04T17:43:44;28.20;72.30
39067;DHT22;24821;51.988;6.020;2022-08-04T17:49:18;28.20;72.70
39067;DHT22;24821;51.988;6.020;2022-08-04T17:54:27;28.10;72.90
39067;DHT22;24821;51.988;6.020;2022-08-04T17:56:56;28.00;72.70
39067;DHT22;24821;51.988;6.020;2022-08-04T17:59:26;27.80;73.00
39067;DHT22;24821;51.988;6.020;2022-08-04T18:01:53;27.60;73.10
39067;DHT22;24821;51.988;6.020;2022-08-04T18:07:15;27.40;73.80
39067;DHT22;24821;51.988;6.020;2022-08-04T18:09:52;27.30;74.60
39067;DHT22;24821;51.988;6.020;2022-08-04T18:14:52;27.20;74.90
39067;DHT22;24821;51.988;6.020;2022-08-04T18:20:05;27.20;74.80
39067;DHT22;24821;51.988;6.020;2022-08-04T18:22:31;27.00;75.40
39067;DHT22;24821;51.988;6.020;2022-08-04T18:24:56;26.90;75.90
39067;DHT22;24821;51.988;6.020;2022-08-04T18:27:26;26.80;76.00
39067;DHT22;24821;51.988;6.020;2022-08-04T18:29:52;26.70;76.40
39067;DHT22;24821;51.988;6.020;2022-08-04T18:32:19;26.70;76.90
39067;DHT22;24821;51.988;6.020;2022-08-04T18:34:45;26.60;77.20
39067;DHT22;24821;51.988;6.020;2022-08-04T18:37:14;26.50;77.40
39067;DHT22;24821;51.988;6.020;2022-08-04T18:39:40;26.50;77.80
39067;DHT22;24821;51.988;6.020;2022-08-04T18:42:05;26.30;78.30
39067;DHT22;24821;51.988;6.020;2022-08-04T18:44:31;26.20;78.70
39067;DHT22;24821;51.988;6.020;2022-08-04T18:46:58;26.10;79.30
39067;DHT22;24821;51.988;6.020;2022-08-04T18:49:23;26.00;79.40
39067;DHT22;24821;51.988;6.020;2022-08-04T18:51:51;25.90;79.50
39067;DHT22;24821;51.988;6.020;2022-08-04T18:54:17;25.80;80.00
39067;DHT22;24821;51.988;6.020;2022-08-04T18:56:42;25.70;79.90
39067;DHT22;24821;51.988;6.020;2022-08-04T18:59:08;25.70;79.90
39067;DHT22;24821;51.988;6.020;2022-08-04T19:01:33;25.60;79.80
39067;DHT22;24821;51.988;6.020;2022-08-04T19:03:59;25.50;79.90
39067;DHT22;24821;51.988;6.020;2022-08-04T19:06:27;25.40;80.10
39067;DHT22;24821;51.988;6.020;2022-08-04T19:08:52;25.40;80.30
39067;DHT22;24821;51.988;6.020;2022-08-04T19:11:20;25.20;80.80
39067;DHT22;24821;51.988;6.020;2022-08-04T19:13:46;25.20;81.00
39067;DHT22;24821;51.988;6.020;2022-08-04T19:16:12;25.20;81.30
39067;DHT22;24821;51.988;6.020;2022-08-04T19:18:38;25.10;81.60
39067;DHT22;24821;51.988;6.020;2022-08-04T19:21:03;25.00;81.30
39067;DHT22;24821;51.988;6.020;2022-08-04T19:23:29;25.00;81.80
39067;DHT22;24821;51.988;6.020;2022-08-04T19:25:56;24.90;82.20
39067;DHT22;24821;51.988;6.020;2022-08-04T19:28:23;24.90;82.30
39067;DHT22;24821;51.988;6.020;2022-08-04T19:30:49;24.90;82.50
39067;DHT22;24821;51.988;6.020;2022-08-04T19:33:15;24.90;82.70
39067;DHT22;24821;51.988;6.020;2022-08-04T19:35:40;24.80;82.90
39067;DHT22;24821;51.988;6.020;2022-08-04T19:38:08;24.70;82.90
39067;DHT22;24821;51.988;6.020;2022-08-04T19:40:34;24.70;83.40
39067;DHT22;24821;51.988;6.020;2022-08-04T19:43:02;24.70;83.80
39067;DHT22;24821;51.988;6.020;2022-08-04T19:45:27;24.60;83.90
39067;DHT22;24821;51.988;6.020;2022-08-04T19:47:53;24.50;83.40
39067;DHT22;24821;51.988;6.020;2022-08-04T19:50:19;24.40;83.50
39067;DHT22;24821;51.988;6.020;2022-08-04T19:52:44;24.40;83.30
39067;DHT22;24821;51.988;6.020;2022-08-04T19:55:10;24.40;83.00
39067;DHT22;24821;51.988;6.020;2022-08-04T19:57:35;24.40;83.10
39067;DHT22;24821;51.988;6.020;2022-08-04T20:00:03;24.30;83.10